createdAt,value
2023-04-17T00:01:11.683Z,100792.72
2023-04-17T00:03:39.672Z,100782.47
2023-04-17T00:06:07.628Z,100795.53
2023-04-17T00:08:35.590Z,100798.06
2023-04-17T00:11:07.934Z,100791.13
2023-04-17T00:13:37.090Z,100799.91
2023-04-17T00:16:04.861Z,100796.47
2023-04-17T00:18:32.805Z,100799.78
2023-04-17T00:21:00.462Z,100801.44
2023-04-17T00:23:28.618Z,100804.16
2023-04-17T00:25:56.269Z,100806.84
2023-04-17T00:28:24.456Z,100807.69
2023-04-17T00:30:52.409Z,100802.84
2023-04-17T00:33:20.776Z,100801.16
2023-04-17T00:35:49.001Z,100805.22
2023-04-17T00:38:16.901Z,100799.38
2023-04-17T00:40:47.405Z,100806.13
2023-04-17T00:43:15.501Z,100805.44
2023-04-17T00:45:43.216Z,100813.19
2023-04-17T00:48:13.283Z,100817.44
2023-04-17T00:50:42.040Z,100819.22
2023-04-17T00:53:10.652Z,100818.03
2023-04-17T00:55:41.492Z,100813.72
2023-04-17T00:58:11.058Z,100819.00
2023-04-17T01:00:38.968Z,100821.41
2023-04-17T01:03:07.070Z,100823.59
2023-04-17T01:05:36.123Z,100817.38
2023-04-17T01:08:04.358Z,100821.66
2023-04-17T01:10:32.157Z,100820.78
2023-04-17T01:13:07.837Z,100818.06
2023-04-17T01:15:37.074Z,100812.78
2023-04-17T01:18:06.623Z,100814.31
2023-04-17T01:20:34.893Z,100814.22
2023-04-17T01:23:02.763Z,100820.66
2023-04-17T01:25:31.244Z,100812.38
2023-04-17T01:27:58.995Z,100807.94
2023-04-17T01:30:29.099Z,100810.75
2023-04-17T01:33:02.363Z,100805.88
2023-04-17T01:35:30.596Z,100818.25
2023-04-17T01:37:58.996Z,100817.53
2023-04-17T01:40:27.086Z,100816.59
2023-04-17T01:42:54.769Z,100813.03
2023-04-17T01:45:22.756Z,100816.66
2023-04-17T01:47:51.432Z,100808.59
2023-04-17T01:50:19.530Z,100804.19
2023-04-17T01:52:47.232Z,100805.13
2023-04-17T01:55:15.137Z,100808.94
2023-04-17T01:57:42.874Z,100810.94
2023-04-17T02:00:11.259Z,100811.22
2023-04-17T02:02:43.868Z,100815.63
2023-04-17T02:05:12.217Z,100810.69
2023-04-17T02:07:39.835Z,100815.00
2023-04-17T02:10:08.427Z,100819.31
2023-04-17T02:12:37.635Z,100819.47
2023-04-17T02:15:06.128Z,100826.41
2023-04-17T02:17:34.080Z,100825.50
2023-04-17T02:20:02.223Z,100824.59
2023-04-17T02:22:32.446Z,100828.13
2023-04-17T02:25:00.408Z,100825.75
2023-04-17T02:27:28.332Z,100829.25
2023-04-17T02:29:56.665Z,100823.19
2023-04-17T02:32:24.433Z,100821.47
2023-04-17T02:34:53.110Z,100822.22
2023-04-17T02:37:21.696Z,100823.22
2023-04-17T02:39:50.616Z,100823.31
2023-04-17T02:42:18.494Z,100824.31
2023-04-17T02:44:49.105Z,100821.00
2023-04-17T02:47:16.788Z,100830.69
2023-04-17T02:49:44.889Z,100832.53
2023-04-17T02:52:12.645Z,100833.53
2023-04-17T02:54:40.631Z,100832.69
2023-04-17T02:57:09.466Z,100837.03
2023-04-17T02:59:37.481Z,100839.53
2023-04-17T03:02:05.463Z,100837.72
2023-04-17T03:04:34.615Z,100842.06
2023-04-17T03:07:02.275Z,100846.34
2023-04-17T03:09:31.050Z,100845.47
2023-04-17T03:11:58.722Z,100842.91
2023-04-17T03:14:26.636Z,100844.63
2023-04-17T03:16:54.312Z,100841.25
2023-04-17T03:19:22.335Z,100843.78
2023-04-17T03:21:49.990Z,100842.22
2023-04-17T03:24:17.857Z,100850.09
2023-04-17T03:26:45.700Z,100843.06
2023-04-17T03:29:19.372Z,100843.94
2023-04-17T03:31:47.123Z,100843.81
2023-04-17T03:34:15.338Z,100844.69
2023-04-17T03:36:43.170Z,100850.91
2023-04-17T03:39:11.471Z,100852.59
2023-04-17T03:41:39.754Z,100849.06
2023-04-17T03:44:09.199Z,100858.47
2023-04-17T03:46:37.780Z,100861.84
2023-04-17T03:49:06.333Z,100860.22
2023-04-17T03:51:34.228Z,100855.03
2023-04-17T03:54:10.843Z,100863.63
2023-04-17T03:56:38.547Z,100865.41
2023-04-17T03:59:06.966Z,100867.03
2023-04-17T04:01:39.295Z,100874.75
2023-04-17T04:04:28.163Z,100880.72
2023-04-17T04:07:06.570Z,100873.69
2023-04-17T04:09:35.966Z,100885.69
2023-04-17T04:12:05.755Z,100893.38
2023-04-17T04:14:41.865Z,100887.97
2023-04-17T04:17:10.540Z,100889.69
2023-04-17T04:19:39.780Z,100885.25
2023-04-17T04:22:08.176Z,100899.06
2023-04-17T04:24:45.684Z,100901.66
2023-04-17T04:27:18.077Z,100900.69
2023-04-17T04:29:48.922Z,100904.91
2023-04-17T04:32:19.710Z,100902.47
2023-04-17T04:34:48.649Z,100897.44
2023-04-17T04:37:16.261Z,100902.47
2023-04-17T04:39:47.353Z,100902.38
2023-04-17T04:42:21.981Z,100909.25
2023-04-17T04:45:19.137Z,100911.03
2023-04-17T04:47:47.302Z,100908.34
2023-04-17T04:50:15.581Z,100914.28
2023-04-17T04:52:43.288Z,100908.03
2023-04-17T04:55:24.661Z,100922.72
2023-04-17T04:57:55.478Z,100921.59
2023-04-17T05:00:25.114Z,100915.56
2023-04-17T05:02:55.752Z,100915.38
2023-04-17T05:05:26.203Z,100923.03
2023-04-17T05:07:55.187Z,100916.56
2023-04-17T05:10:26.798Z,100924.44
2023-04-17T05:13:00.669Z,100922.63
2023-04-17T05:15:28.716Z,100926.59
2023-04-17T05:17:57.085Z,100927.59
2023-04-17T05:20:26.917Z,100930.41
2023-04-17T05:22:57.684Z,100926.28
2023-04-17T05:25:25.807Z,100930.38
2023-04-17T05:27:55.566Z,100930.94
2023-04-17T05:30:23.700Z,100935.13
2023-04-17T05:33:01.018Z,100938.47
2023-04-17T05:35:42.262Z,100941.84
2023-04-17T05:38:09.976Z,100942.34
2023-04-17T05:40:37.994Z,100948.75
2023-04-17T05:43:09.678Z,100944.88
2023-04-17T05:45:38.641Z,100950.00
2023-04-17T05:48:09.739Z,100961.22
2023-04-17T05:50:37.787Z,100955.44
2023-04-17T05:53:07.049Z,100962.31
2023-04-17T05:55:40.517Z,100957.78
2023-04-17T05:58:23.263Z,100957.50
2023-04-17T06:00:55.652Z,100954.44
2023-04-17T06:03:24.443Z,100961.13
2023-04-17T06:06:00.181Z,100957.50
2023-04-17T06:08:28.170Z,100956.59
2023-04-17T06:10:56.451Z,100955.38
2023-04-17T06:13:24.648Z,100964.84
2023-04-17T06:15:53.936Z,100959.22
2023-04-17T06:18:21.611Z,100961.91
2023-04-17T06:20:49.732Z,100966.06
2023-04-17T06:23:17.448Z,100966.66
2023-04-17T06:25:45.427Z,100963.88
2023-04-17T06:28:13.505Z,100959.06
2023-04-17T06:30:41.568Z,100966.38
2023-04-17T06:33:09.950Z,100969.84
2023-04-17T06:35:38.415Z,100970.59
2023-04-17T06:38:17.751Z,100967.47
2023-04-17T06:40:46.733Z,100966.84
2023-04-17T06:43:16.941Z,100974.34
2023-04-17T06:45:45.085Z,100969.69
2023-04-17T06:48:12.792Z,100966.84
2023-04-17T06:50:40.766Z,100975.75
2023-04-17T06:53:08.474Z,100976.16
2023-04-17T06:55:36.612Z,100976.56
2023-04-17T06:58:05.083Z,100975.94
2023-04-17T07:00:33.088Z,100982.81
2023-04-17T07:03:01.758Z,100986.19
2023-04-17T07:05:29.863Z,100988.28
2023-04-17T07:07:57.625Z,100989.97
2023-04-17T07:10:25.730Z,100999.41
2023-04-17T07:12:53.478Z,100997.69
2023-04-17T07:15:21.545Z,100998.97
2023-04-17T07:17:49.207Z,100992.72
2023-04-17T07:20:17.169Z,100999.56
2023-04-17T07:22:44.931Z,101001.13
2023-04-17T07:25:13.033Z,101010.69
2023-04-17T07:27:40.733Z,101023.91
2023-04-17T07:30:09.849Z,101025.50
2023-04-17T07:32:37.626Z,101020.38
2023-04-17T07:35:06.438Z,101017.44
2023-04-17T07:37:36.980Z,101027.50
2023-04-17T07:40:10.226Z,101022.09
2023-04-17T07:42:38.274Z,101027.84
2023-04-17T07:45:07.288Z,101027.03
2023-04-17T07:47:35.097Z,101033.63
2023-04-17T07:50:03.250Z,101032.09
2023-04-17T07:52:31.165Z,101033.88
2023-04-17T07:54:59.116Z,101030.38
2023-04-17T07:57:26.842Z,101029.94
2023-04-17T07:59:54.877Z,101033.41
2023-04-17T08:02:22.872Z,101025.00
2023-04-17T08:04:52.293Z,101024.53
2023-04-17T08:07:20.325Z,101034.25
2023-04-17T08:09:48.252Z,101035.69
2023-04-17T08:12:15.926Z,101032.63
2023-04-17T08:14:43.955Z,101029.97
2023-04-17T08:17:11.818Z,101034.25
2023-04-17T08:19:39.871Z,101033.78
2023-04-17T08:22:08.256Z,101029.97
2023-04-17T08:24:36.184Z,101034.38
2023-04-17T08:27:05.229Z,101026.69
2023-04-17T08:29:33.197Z,101030.16
2023-04-17T08:32:14.120Z,101027.78
2023-04-17T08:34:44.455Z,101030.91
2023-04-17T08:37:12.168Z,101040.38
2023-04-17T08:39:40.233Z,101037.75
2023-04-17T08:42:15.382Z,101040.81
2023-04-17T08:44:46.099Z,101047.44
2023-04-17T08:47:14.845Z,101046.47
2023-04-17T08:49:43.957Z,101047.81
2023-04-17T08:52:12.178Z,101041.78
2023-04-17T08:54:40.426Z,101055.25
2023-04-17T08:57:08.301Z,101051.47
2023-04-17T08:59:36.279Z,101049.97
2023-04-17T09:02:06.861Z,101055.81
2023-04-17T09:04:37.776Z,101064.59
2023-04-17T09:07:07.075Z,101064.38
2023-04-17T09:09:49.616Z,101054.25
2023-04-17T09:12:18.709Z,101067.72
2023-04-17T09:14:46.825Z,101061.03
2023-04-17T09:17:19.150Z,101060.38
2023-04-17T09:20:08.936Z,101066.13
2023-04-17T09:22:40.238Z,101062.31
2023-04-17T09:25:28.161Z,101053.28
2023-04-17T09:28:08.630Z,101057.91
2023-04-17T09:30:41.073Z,101058.38
2023-04-17T09:33:11.838Z,101057.56
2023-04-17T09:35:40.562Z,101056.72
2023-04-17T09:38:08.449Z,101057.50
2023-04-17T09:40:41.247Z,101065.69
2023-04-17T09:43:10.802Z,101059.72
2023-04-17T09:45:42.442Z,101066.69
2023-04-17T09:48:12.848Z,101049.09
2023-04-17T09:50:41.190Z,101061.09
2023-04-17T09:53:09.446Z,101052.69
2023-04-17T09:55:38.907Z,101053.75
2023-04-17T09:58:08.078Z,101060.44
2023-04-17T10:00:37.902Z,101055.38
2023-04-17T10:03:07.323Z,101056.22
2023-04-17T10:05:36.818Z,101059.03
2023-04-17T10:08:05.727Z,101059.81
2023-04-17T10:10:34.955Z,101063.50
2023-04-17T10:13:11.214Z,101062.34
2023-04-17T10:15:39.788Z,101059.91
2023-04-17T10:18:24.849Z,101065.50
2023-04-17T10:20:55.344Z,101061.69
2023-04-17T10:23:30.252Z,101062.75
2023-04-17T10:26:26.601Z,101060.22
2023-04-17T10:28:56.007Z,101062.44
2023-04-17T10:31:44.176Z,101057.19
2023-04-17T10:34:39.299Z,101058.41
2023-04-17T10:37:08.612Z,101050.78
2023-04-17T10:39:56.812Z,101054.38
2023-04-17T10:42:25.777Z,101053.28
2023-04-17T10:44:59.744Z,101051.50
2023-04-17T10:47:33.696Z,101058.81
2023-04-17T10:50:04.408Z,101049.09
2023-04-17T10:52:35.218Z,101056.75
2023-04-17T10:55:20.749Z,101058.66
2023-04-17T10:58:04.830Z,101044.53
2023-04-17T11:00:50.340Z,101050.69
2023-04-17T11:03:18.562Z,101050.53
2023-04-17T11:05:47.622Z,101057.03
2023-04-17T11:08:16.266Z,101046.03
2023-04-17T11:10:44.157Z,101048.31
2023-04-17T11:13:12.074Z,101049.38
2023-04-17T11:15:39.767Z,101052.59
2023-04-17T11:18:08.376Z,101053.53
2023-04-17T11:20:37.959Z,101055.88
2023-04-17T11:23:06.738Z,101057.47
2023-04-17T11:25:34.990Z,101058.38
2023-04-17T11:28:06.573Z,101058.50
2023-04-17T11:30:36.280Z,101059.59
2023-04-17T11:33:06.601Z,101059.44
2023-04-17T11:35:39.646Z,101063.38
2023-04-17T11:38:19.111Z,101074.91
2023-04-17T11:40:53.466Z,101072.94
2023-04-17T11:43:23.425Z,101065.22
2023-04-17T11:45:59.236Z,101060.44
2023-04-17T11:48:29.220Z,101067.72
2023-04-17T11:51:03.891Z,101061.53
2023-04-17T11:53:34.220Z,101069.59
2023-04-17T11:56:19.307Z,101055.50
2023-04-17T11:58:54.204Z,101059.13
2023-04-17T12:01:25.483Z,101065.66
2023-04-17T12:03:55.585Z,101059.00
2023-04-17T12:06:27.915Z,101069.63
2023-04-17T12:08:56.233Z,101063.50
2023-04-17T12:11:24.778Z,101060.94
2023-04-17T12:13:53.917Z,101062.66
2023-04-17T12:16:22.595Z,101054.38
2023-04-17T12:18:50.873Z,101070.56
2023-04-17T12:21:20.648Z,101062.88
2023-04-17T12:23:49.020Z,101061.78
2023-04-17T12:26:16.689Z,101064.16
2023-04-17T12:28:44.976Z,101061.78
2023-04-17T12:31:12.875Z,101064.25
2023-04-17T12:33:41.512Z,101074.22
2023-04-17T12:36:09.822Z,101075.09
2023-04-17T12:38:37.985Z,101076.78
2023-04-17T12:41:05.815Z,101075.97
2023-04-17T12:43:33.831Z,101067.22
2023-04-17T12:46:02.325Z,101068.66
2023-04-17T12:48:32.700Z,101068.53
2023-04-17T12:51:00.848Z,101075.59
2023-04-17T12:53:30.019Z,101081.00
2023-04-17T12:55:58.287Z,101068.44
2023-04-17T12:58:26.254Z,101080.50
2023-04-17T13:00:53.967Z,101084.56
2023-04-17T13:03:22.444Z,101077.78
2023-04-17T13:05:52.780Z,101085.91
2023-04-17T13:08:21.091Z,101078.09
2023-04-17T13:10:48.745Z,101080.66
2023-04-17T13:13:16.689Z,101080.50
2023-04-17T13:15:47.419Z,101072.03
2023-04-17T13:20:43.472Z,101082.66
2023-04-17T13:23:12.013Z,101080.94
2023-04-17T13:25:39.844Z,101077.22
2023-04-17T13:28:07.803Z,101086.06
2023-04-17T13:30:37.251Z,101085.59
2023-04-17T13:33:05.648Z,101079.19
2023-04-17T13:35:33.923Z,101087.13
2023-04-17T13:38:03.191Z,101095.09
2023-04-17T13:40:31.412Z,101088.38
2023-04-17T13:43:00.440Z,101088.88
2023-04-17T13:45:28.196Z,101085.19
2023-04-17T13:47:56.230Z,101090.72
2023-04-17T13:50:23.883Z,101083.34
2023-04-17T13:52:51.764Z,101091.38
2023-04-17T13:55:19.576Z,101093.28
2023-04-17T13:57:47.538Z,101082.31
2023-04-17T14:00:15.656Z,101080.06
2023-04-17T14:02:43.730Z,101089.13
2023-04-17T14:05:11.926Z,101093.06
2023-04-17T14:07:40.048Z,101086.28
2023-04-17T14:10:08.643Z,101082.84
2023-04-17T14:12:36.686Z,101085.66
2023-04-17T14:15:04.635Z,101088.69
2023-04-17T14:17:32.648Z,101086.44
2023-04-17T14:20:00.467Z,101086.19
2023-04-17T14:22:28.367Z,101085.44
2023-04-17T14:24:55.960Z,101080.41
2023-04-17T14:27:23.900Z,101085.53
2023-04-17T14:29:51.556Z,101076.78
2023-04-17T14:32:19.620Z,101078.13
2023-04-17T14:34:47.336Z,101085.75
2023-04-17T14:37:15.301Z,101090.91
2023-04-17T14:39:43.126Z,101084.34
2023-04-17T14:42:10.983Z,101081.44
2023-04-17T14:44:38.637Z,101072.75
2023-04-17T14:47:07.255Z,101075.38
2023-04-17T14:49:34.950Z,101078.69
2023-04-17T14:52:02.903Z,101082.38
2023-04-17T14:54:30.545Z,101072.00
2023-04-17T14:56:58.670Z,101072.00
2023-04-17T14:59:28.004Z,101077.28
2023-04-17T15:01:56.261Z,101071.50
2023-04-17T15:04:24.072Z,101077.66
2023-04-17T15:06:52.373Z,101072.50
2023-04-17T15:09:20.029Z,101078.75
2023-04-17T15:11:48.014Z,101083.56
2023-04-17T15:14:15.686Z,101079.19
2023-04-17T15:16:43.761Z,101083.19
2023-04-17T15:19:11.590Z,101083.69
2023-04-17T15:21:39.718Z,101082.72
2023-04-17T15:24:07.538Z,101086.88
2023-04-17T15:26:35.621Z,101080.22
2023-04-17T15:29:03.798Z,101074.94
2023-04-17T15:31:31.797Z,101079.94
2023-04-17T15:33:59.514Z,101089.50
2023-04-17T15:36:33.958Z,101082.28
2023-04-17T15:39:01.638Z,101079.59
2023-04-17T15:41:29.601Z,101081.75
2023-04-17T15:43:57.237Z,101076.91
2023-04-17T15:46:25.278Z,101084.63
2023-04-17T15:49:07.570Z,101083.72
2023-04-17T15:51:36.039Z,101085.50
2023-04-17T15:54:03.723Z,101089.97
2023-04-17T15:56:31.666Z,101083.44
2023-04-17T15:58:59.417Z,101091.41
2023-04-17T16:01:28.627Z,101083.75
2023-04-17T16:03:56.478Z,101081.38
2023-04-17T16:06:24.580Z,101097.72
2023-04-17T16:08:52.238Z,101093.00
2023-04-17T16:11:20.573Z,101097.63
2023-04-17T16:13:48.229Z,101092.94
2023-04-17T16:16:16.190Z,101091.63
2023-04-17T16:18:46.377Z,101097.34
2023-04-17T16:21:14.655Z,101094.84
2023-04-17T16:23:42.417Z,101099.53
2023-04-17T16:26:13.360Z,101103.34
2023-04-17T16:28:41.209Z,101104.38
2023-04-17T16:31:09.751Z,101099.56
2023-04-17T16:33:37.771Z,101106.41
2023-04-17T16:36:05.872Z,101116.38
2023-04-17T16:38:35.527Z,101109.06
2023-04-17T16:41:04.346Z,101114.63
2023-04-17T16:43:32.083Z,101118.22
2023-04-17T16:46:03.303Z,101110.69
2023-04-17T16:48:36.174Z,101122.31
2023-04-17T16:51:05.271Z,101127.84
2023-04-17T16:53:33.035Z,101129.66
2023-04-17T16:56:00.981Z,101130.81
2023-04-17T16:58:28.697Z,101128.19
2023-04-17T17:00:56.835Z,101135.06
2023-04-17T17:03:24.694Z,101137.50
2023-04-17T17:05:52.849Z,101139.38
2023-04-17T17:08:20.469Z,101142.59
2023-04-17T17:10:50.082Z,101141.59
2023-04-17T17:13:17.764Z,101149.34
2023-04-17T17:15:45.768Z,101145.81
2023-04-17T17:18:13.400Z,101135.81
2023-04-17T17:20:41.670Z,101145.34
2023-04-17T17:23:09.280Z,101148.09
2023-04-17T17:25:37.313Z,101150.22
2023-04-17T17:28:04.997Z,101152.44
2023-04-17T17:30:33.012Z,101157.78
2023-04-17T17:33:00.708Z,101158.56
2023-04-17T17:35:28.661Z,101155.56
2023-04-17T17:37:56.447Z,101164.41
2023-04-17T17:40:24.500Z,101155.59
2023-04-17T17:42:52.096Z,101161.81
2023-04-17T17:45:20.138Z,101160.25
2023-04-17T17:47:47.869Z,101163.94
2023-04-17T17:50:15.922Z,101162.22
2023-04-17T17:52:43.576Z,101163.16
2023-04-17T17:55:15.514Z,101163.91
2023-04-17T17:57:49.486Z,101162.38
2023-04-17T18:00:18.109Z,101160.88
2023-04-17T18:02:46.157Z,101176.28
2023-04-17T18:05:14.508Z,101178.09
2023-04-17T18:07:43.198Z,101170.38
2023-04-17T18:10:11.414Z,101176.28
2023-04-17T18:12:39.062Z,101178.19
2023-04-17T18:15:07.668Z,101180.38
2023-04-17T18:17:35.393Z,101179.75
2023-04-17T18:20:03.606Z,101185.63
2023-04-17T18:22:31.231Z,101179.59
2023-04-17T18:24:59.210Z,101183.91
2023-04-17T18:27:26.927Z,101179.13
2023-04-17T18:29:54.861Z,101180.81
2023-04-17T18:32:22.629Z,101185.16
2023-04-17T18:34:51.309Z,101192.41
2023-04-17T18:37:19.039Z,101190.59
2023-04-17T18:39:47.089Z,101190.94
2023-04-17T18:42:14.869Z,101192.78
2023-04-17T18:44:42.893Z,101201.22
2023-04-17T18:47:10.617Z,101197.69
2023-04-17T18:49:38.569Z,101190.75
2023-04-17T18:52:06.286Z,101197.78
2023-04-17T18:54:35.142Z,101192.78
2023-04-17T18:57:02.791Z,101192.59
2023-04-17T18:59:31.038Z,101195.25
2023-04-17T19:01:58.729Z,101196.38
2023-04-17T19:04:26.845Z,101199.03
2023-04-17T19:06:54.562Z,101194.66
2023-04-17T19:09:22.468Z,101199.88
2023-04-17T19:11:50.290Z,101199.94
2023-04-17T19:14:18.259Z,101195.78
2023-04-17T19:16:47.395Z,101199.25
2023-04-17T19:19:15.701Z,101201.06
2023-04-17T19:21:43.471Z,101198.53
2023-04-17T19:24:11.419Z,101195.91
2023-04-17T19:26:39.186Z,101203.88
2023-04-17T19:29:07.176Z,101203.94
2023-04-17T19:31:34.901Z,101200.56
2023-04-17T19:34:03.012Z,101198.88
2023-04-17T19:36:31.199Z,101196.25
2023-04-17T19:38:59.880Z,101206.63
2023-04-17T19:41:27.841Z,101202.50
2023-04-17T19:43:55.808Z,101204.34
2023-04-17T19:46:24.369Z,101203.38
2023-04-17T19:48:52.674Z,101198.78
2023-04-17T19:51:20.571Z,101205.09
2023-04-17T19:53:48.510Z,101202.50
2023-04-17T19:56:16.334Z,101211.19
2023-04-17T19:58:44.438Z,101204.25
2023-04-17T20:01:12.142Z,101204.25
2023-04-17T20:03:42.172Z,101196.53
2023-04-17T20:06:10.289Z,101205.41
2023-04-17T20:08:38.206Z,101207.94
2023-04-17T20:11:06.478Z,101207.00
2023-04-17T20:13:34.559Z,101209.59
2023-04-17T20:16:02.215Z,101205.06
2023-04-17T20:18:30.423Z,101210.44
2023-04-17T20:20:58.000Z,101205.22
2023-04-17T20:23:26.058Z,101219.06
2023-04-17T20:25:53.781Z,101205.13
2023-04-17T20:28:22.931Z,101216.38
2023-04-17T20:30:50.536Z,101215.03
2023-04-17T20:33:18.603Z,101216.88
2023-04-17T20:35:46.415Z,101213.28
2023-04-17T20:38:14.356Z,101213.53
2023-04-17T20:40:42.136Z,101216.09
2023-04-17T20:43:10.133Z,101214.16
2023-04-17T20:45:37.959Z,101211.75
2023-04-17T20:48:05.976Z,101218.84
2023-04-17T20:50:33.795Z,101216.97
2023-04-17T20:53:01.924Z,101224.84
2023-04-17T20:55:29.716Z,101218.78
2023-04-17T20:57:57.622Z,101220.53
2023-04-17T21:00:25.449Z,101222.47
2023-04-17T21:02:53.720Z,101222.22
2023-04-17T21:05:21.634Z,101223.22
2023-04-17T21:07:51.359Z,101223.22
2023-04-17T21:10:20.176Z,101225.75
2023-04-17T21:12:48.202Z,101229.31
2023-04-17T21:15:15.944Z,101232.63
2023-04-17T21:17:47.863Z,101227.44
2023-04-17T21:20:15.885Z,101234.59
2023-04-17T21:22:43.769Z,101236.31
2023-04-17T21:25:11.594Z,101233.81
2023-04-17T21:27:41.418Z,101224.88
2023-04-17T21:30:10.668Z,101230.34
2023-04-17T21:32:40.607Z,101245.84
2023-04-17T21:35:09.242Z,101235.47
2023-04-17T21:37:37.201Z,101236.47
2023-04-17T21:40:05.470Z,101235.03
2023-04-17T21:42:33.436Z,101242.19
2023-04-17T21:45:01.201Z,101229.84
2023-04-17T21:47:29.282Z,101230.94
2023-04-17T21:49:56.852Z,101234.44
2023-04-17T21:52:24.725Z,101232.06
2023-04-17T21:54:52.464Z,101234.59
2023-04-17T21:57:20.450Z,101224.31
2023-04-17T21:59:48.564Z,101230.47
2023-04-17T22:02:16.526Z,101220.75
2023-04-17T22:04:44.421Z,101236.72
2023-04-17T22:07:12.489Z,101233.22
2023-04-17T22:09:40.286Z,101235.91
2023-04-17T22:12:17.755Z,101225.41
2023-04-17T22:14:45.558Z,101220.00
2023-04-17T22:17:13.827Z,101223.50
2023-04-17T22:19:41.858Z,101230.50
2023-04-17T22:23:06.357Z,101229.09
2023-04-17T22:26:49.267Z,101230.69
2023-04-17T22:30:31.430Z,101238.50
2023-04-17T22:34:14.964Z,101236.78
2023-04-17T22:37:57.855Z,101235.19
2023-04-17T22:41:40.696Z,101230.97
2023-04-17T22:45:23.362Z,101229.91
2023-04-17T22:49:06.610Z,101228.38
2023-04-17T22:52:48.834Z,101225.63
2023-04-17T22:56:31.919Z,101232.91
2023-04-17T23:00:14.536Z,101241.53
2023-04-17T23:03:57.884Z,101236.13
2023-04-17T23:07:40.172Z,101242.22
2023-04-17T23:10:26.530Z,101242.09
2023-04-17T23:12:54.270Z,101232.53
2023-04-17T23:15:22.315Z,101230.94
2023-04-17T23:17:49.965Z,101230.00
2023-04-17T23:20:18.116Z,101229.16
2023-04-17T23:22:45.753Z,101227.38
2023-04-17T23:25:13.850Z,101223.59
2023-04-17T23:27:41.522Z,101230.75
2023-04-17T23:30:09.943Z,101225.66
2023-04-17T23:32:37.734Z,101238.50
2023-04-17T23:35:06.425Z,101227.34
2023-04-17T23:37:34.064Z,101234.13
2023-04-17T23:40:02.562Z,101228.13
2023-04-17T23:42:30.472Z,101228.13
2023-04-17T23:44:58.413Z,101229.09
2023-04-17T23:47:26.116Z,101229.84
2023-04-17T23:49:54.347Z,101233.44
2023-04-17T23:52:21.954Z,101222.91
2023-04-17T23:54:50.080Z,101225.63
2023-04-17T23:57:18.046Z,101231.06
2023-04-17T23:59:46.127Z,101221.53
